WEATHER DATA

YESTERDAY
Time Temp. Dewp. Hum. Wind dir Wind speed Wind gust Bar. 1h Prec. 24h Prec.
00:08 4.4 2.7 89 0.3 0.6 1012.6 0.4040 0.1000
00:27 4.4 2.7 89 225 0.3 0.6 1013.1 0.3030 0.1000
00:48 4.5 2.8 89 240 0.3 0.8 1013.7 0.2020 0.1000
00:58 4.6 2.9 89 270 0.3 0.8 1013.7 0.2020 0.2000
01:08 4.7 3 89 270 0.3 0.6 1014.1 0.1010 0.2000
01:19 4.8 3 88 270 0.3 0.8 1014.3 0.1010 0.2000
01:28 4.8 3 88 270 0.3 0.8 1014.5 0.1010 0.2000
01:38 4.7 2.9 88 270 0.3 0.8 1014.7 0.2020 0.3000
01:41 4.7 2.9 88 270 0.3 0.8 1014.6 0.3030 0.4000
01:51 4.7 2.9 88 270 0.3 0.6 1014.6 0.2020 0.4000
02:01 4.7 2.9 88 270 0.3 0.8 1014.7 0.2020 0.4000
02:12 4.7 2.9 88 270 0.3 0.6 1014.7 0.2020 0.4000
02:22 4.7 2.9 88 270 0.3 0.6 1015 0.2020 0.4000
02:31 4.7 2.9 88 270 0.3 0.8 1015.6 0.2020 0.5000
02:41 4.7 2.9 88 270 0.3 0.8 1015.7 0.1010 0.5000
02:52 4.7 2.9 88 270 0.3 0.6 1015.6 0.1010 0.5000
03:02 4.7 2.9 88 270 0.3 0.6 1015.7 0.1010 0.5000
03:12 4.8 3 88 270 0.3 0.6 1015.7 0.2020 0.6000
03:22 4.8 3 88 270 0.3 0.6 1015.9 0.1010 0.6000
03:32 4.9 3.1 88 270 0.3 0.8 1015.9 0.1010 0.6000
03:42 4.9 3.1 88 0 0.6 1015.9 0.1010 0.6000
03:52 5 3 87 270 0.3 1.1 1015.9 0.2020 0.7000
04:03 5 2.9 86 0.3 0.6 1016.1 0.1010 0.7000
04:13 5 2.9 86 270 0.3 0.8 1016.2 0.2020 0.8000
04:22 5 2.9 86 270 0.3 0.6 1016.2 0.3030 0.9000
04:43 4.9 2.4 84 270 0.3 0.8 1016.2 0.3030 1.0000
04:53 4.9 2.4 84 270 0.3 1.1 1016.2 0.3030 1.0000
05:03 4.8 2.3 84 270 0.3 1.4 1016.2 0.2020 1.0000
05:14 4.8 2.5 85 270 0.3 0.6 1016.4 0.2020 1.1000
05:23 4.8 2.5 85 270 0.3 0.6 1016.4 0.3030 1.3000
05:33 4.7 2.4 85 270 0.3 0.8 1016.5 0.3030 1.3000
05:44 4.7 2.6 86 270 0.3 0.6 1016.4 0.3030 1.3000
05:54 4.7 2.6 86 0 0.6 1016.6 0.3030 1.3000
06:04 4.7 2.4 85 270 0.3 0.6 1016.5 0.4040 1.4000
06:13 4.7 2.4 85 0 0.6 1016.7 0.4040 1.6000
06:24 4.7 2.6 86 0 0.6 1016.8 0.4040 1.7000
06:34 4.7 2.6 86 270 0.3 0.6 1016.9 0.5050 1.8000
06:44 4.6 2.5 86 336 0.3 1.4 1017.2 0.5050 1.8000
06:54 4.6 2.3 85 270 0.3 1.1 1017.2 0.5050 1.9000
07:05 4.6 2.3 85 270 0.3 0.8 1017.2 0.5050 1.9000
07:14 4.6 2.3 85 315 0.3 0.8 1017.1 0.3030 1.9000
07:24 4.5 2.2 85 270 0.3 1.1 1017.3 0.3030 2.0000
07:45 4.4 2.1 85 0.3 1.1 1017.3 0.1010 2.0000
07:55 4.4 1.9 84 270 0.3 0.8 1017.6 0.1010 2.0000
08:05 4.4 1.9 84 341 0.3 0.8 1017.6 0.1010 2.0000
08:15 4.3 1.8 84 270 0.3 1.1 1017.7 0.1010 2.0000
08:25 4.4 1.9 84 0.3 0.8 1017.7 0.0000 2.0000
08:35 4.4 1.8 83 270 0.3 0.6 1017.7 0.0000 2.0000
08:46 4.4 1.8 83 45 0.3 1.7 1017.9 0.0000 2.0000
08:51 4.4 1.6 82 292 0.6 5.3 1017.7 0.0000 2.0000
09:01 4.6 0.2 73 246 0.6 2.8 1017.9 0.0000 2.0000
09:11 4.8 -0.4 69 315 0.3 1.1 1017.9 0.0000 2.0000
09:21 4.9 -0.4 68 288 0.6 1.7 1017.7 0.0000 2.0000
09:32 5.1 -1.2 63 243 0.6 1.7 1018 0.0000 2.0000
09:42 5.3 -1.2 62 270 0.8 2.8 1018.1 0.0000 2.0000
09:52 5.5 -1.4 60 287 0.6 2.8 1018.1 0.0000 2.0000
10:02 5.6 -0.2 66 315 0.3 1.1 1018.3 0.0000 2.0000
10:12 5.6 1 72 0.3 0.6 1018.7 0.0000 2.0000
10:22 5.6 1.3 74 90 0.6 3.3 1018.9 0.0000 2.0000
10:32 5.5 1.6 76 11 0.3 0.8 1019.1 0.0000 2.0000
10:43 5.4 1.1 74 270 0.8 2.5 1019.5 0.0000 2.0000
10:53 5.3 0.5 71 246 0.6 1.9 1019.6 0.0000 2.0000
11:02 5.2 0.4 71 240 0.8 1.9 1019.7 0.0000 2.0000
11:13 5 0.4 72 253 0.6 2.2 1019.7 0.0000 2.0000
11:23 4.9 0.5 73 255 0.6 1.7 1019.8 0.0000 2.0000
11:33 4.9 0.5 73 206 0.3 1.1 1020 0.0000 2.0000
11:43 4.9 0.3 72 234 0.6 1.4 1020 0.0000 2.0000
11:48 4.9 0.3 72 303 0.3 1.4 1020.2 0.0000 2.0000
12:03 4.8 0.2 72 225 0.6 2.8 1020.4 0.0000 2.0000
12:13 4.6 0.4 74 270 0.3 0.8 1020.4 0.0000 2.0000
12:23 4.6 0.6 75 270 0.3 0.6 1020.6 0.0000 2.0000
12:34 4.5 0.6 76 341 0.3 0.8 1020.5 0.0000 2.0000
12:44 4.5 0.6 76 270 0.3 1.4 1020.4 0.0000 2.0000
12:54 4.5 0.5 75 315 0.3 1.1 1020.4 0.0000 2.0000
13:04 4.5 0.6 76 0 0.3 1.4 1020.3 0.0000 2.0000
13:14 4.6 0.4 74 18 0.3 0.8 1020.3 0.0000 2.0000
13:24 4.7 0.3 73 315 0.3 0.8 1020.2 0.0000 2.0000
13:34 4.8 0.4 73 270 0.3 0.8 1020 0.0000 2.0000
13:45 4.8 0.6 74 270 0.3 0.6 1020 0.0000 2.0000
13:54 4.8 0.8 75 0 0.3 1.1 1020 0.0000 2.0000
14:04 4.8 0.9 76 270 0.3 0.8 1020.2 0.0000 2.0000
14:14 4.6 0.7 76 270 0.3 1.1 1020.3 0.0000 2.0000
14:25 4.5 0.8 77 270 0.6 1.7 1020.4 0.0000 2.0000
14:35 4.4 0.7 77 270 0.3 1.4 1020.5 0.1010 2.1000
14:40 4.3 0.6 77 270 0.3 1.4 1020.5 0.1010 2.1000
14:50 4.2 0.5 77 270 0.3 0.6 1020.6 0.4040 2.4000
15:00 4.1 0.6 78 135 0.3 0.6 1020.6 0.5050 2.5000
15:10 4 0.7 79 270 0.3 0.6 1020.7 0.6060 2.6000
15:20 3.9 0.6 79 0 0.6 1020.9 0.6060 2.6000
15:31 3.9 0.8 80 303 0.3 0.6 1020.9 0.6060 2.7000
15:41 3.9 0.8 80 0 0.3 1020.7 0.8080 3.0000
15:50 3.8 0.7 80 270 0.3 0.6 1021 0.5050 3.0000
16:00 3.8 0.8 81 0 0.6 1020.7 0.5050 3.1000
16:11 3.8 0.8 81 270 0.3 0.6 1020.6 0.5050 3.1000
16:21 3.8 0.8 81 270 0.3 0.6 1020.5 0.4040 3.1000
16:36 3.7 0.7 81 270 0.3 0.6 1020.5 0.2020 3.1000
16:46 3.6 0.6 81 270 0.3 0.8 1020.4 0.1010 3.1000
16:56 3.5 0.7 82 270 0.3 0.8 1020.5 0.1010 3.1000
17:06 3.4 0.6 82 270 0.3 0.8 1020.6 0.0000 3.1000
17:17 3.3 0.5 82 0 0.6 1020.7 0.0000 3.1000
17:27 3.3 0.7 83 0 0.6 1020.6 0.0000 3.1000
17:36 3.3 0.7 83 270 0.3 0.6 1020.6 0.0000 3.1000
17:46 3.3 0.7 83 315 0.3 1.1 1020.4 0.0000 3.1000
17:57 3.2 0.6 83 45 0.3 1.7 1020.2 0.0000 3.1000
18:07 3.1 0.5 83 270 0.3 0.8 1020.2 0.0000 3.1000
18:17 3 0.6 84 270 0.3 0.8 1019.9 0.0000 3.1000
18:27 3 0.6 84 270 0.3 0.6 1020.1 0.0000 3.1000
18:37 3 0.6 84 315 0.3 0.8 1020 0.0000 3.1000
18:45 2.9 0.5 84 11 0.3 0.8 1020 0.0000 3.1000
18:55 2.9 0.5 84 0 0.6 1020.1 0.0000 3.1000
19:05 2.9 0.5 84 270 0.3 0.6 1020.1 0.0000 3.1000
19:15 3 0.7 85 270 0.3 0.6 1020.4 0.1010 3.2000
19:22 3 0.7 85 270 0.3 0.8 1020.3 0.3030 3.4000
19:32 3 0.7 85 270 0.3 0.8 1020.3 0.7070 3.8000
19:43 3 0.7 85 270 0.3 0.8 1020.4 1.1110 4.2000
19:53 2.9 0.8 86 239 0.3 0.8 1020.6 1.1110 4.2000
20:03 2.8 0.7 86 239 0.3 0.6 1020.3 1.1110 4.2000
20:13 2.7 0.8 87 270 0.3 1.1 1020.1 1.0100 4.2000
20:23 2.6 0.7 87 270 0.3 0.8 1020.1 0.9090 4.4000
20:33 2.6 0.8 88 270 0.3 0.6 1020.1 0.4040 4.5000
20:43 2.5 0.7 88 270 0.6 1.4 1020.2 0.4040 4.6000
20:54 2.4 0.6 88 270 0.6 1.1 1020.1 0.5050 4.7000
21:04 2.2 0.4 88 270 0.3 1.1 1020.3 0.6060 4.8000
21:13 2.2 0.6 89 270 0.3 0.8 1020.3 0.6060 4.9000
21:23 2.1 0.5 89 270 0.3 0.6 1020.2 0.6060 5.1000
21:34 2.1 0.6 90 309 0.3 0.8 1020.1 0.6060 5.3000
21:44 2.1 0.6 90 270 0.3 0.8 1020 0.8080 5.6000
21:54 2 0.5 90 291 0.6 1.1 1019.9 0.8080 5.7000
22:04 2 0.7 91 270 0.3 0.8 1019.7 1.1110 6.0000
22:14 2 0.7 91 270 0.3 0.6 1019.1 1.1110 6.2000
22:24 2 0.7 91 270 0.3 0.8 1019 0.9090 6.2000
22:34 2 0.7 91 270 0.3 0.8 1018.9 0.7070 6.2000
22:45 2 0.7 91 270 0.3 0.6 1019 0.6060 6.3000
22:55 2 0.8 92 270 0.3 0.8 1019.4 0.5050 6.4000
23:00 2 0.8 92 295 0.6 1.1 1019.1 0.3030 6.4000
23:15 2 0.8 92 270 0.3 0.8 1019 0.3030 6.5000
23:25 1.9 0.7 92 315 0.6 1.9 1019 0.3030 6.5000
23:35 1.9 0.6 91 270 0.6 1.9 1019.1 0.3030 6.6000
23:45 1.8 0.6 92 270 0.3 1.1 1019.1 0.3030 6.6000
23:56 1.8 0.6 92 270 0.6 1.4 1019.6 0.2020 6.6000

DAY STATISTIC

2018-12-10
TEMPERATURE
AVERAGE
4.0
HIGH
5.6
10:02
LOW
1.8
23:45
PRESSURE
AVERAGE
1018.5
HIGH
1021.0
15:50
LOW
1012.6
00:08
DEWPOINT
AVERAGE
1.3
HIGH
3.1
03:32
LOW
-1.4
09:52
HUMIDITY
AVERAGE
83
HIGH
92
22:55
LOW
60
09:52
WIND SPEED
AVERAGE
0.3
HIGH
0.8
09:42
WIND GUST
AVERAGE
1.0
HIGH
5.3
08:51
WIND DIRECTION
PREVAILING
W
64.3%
N
5.0
NE
1.4
E
0.7
SE
0.7
S
0.0
SW
7.9
W
64.3
NW
9.3
PRECIPITATION
RAIN HOUR
1.1
RAIN DAY
6.6
TEMPERATURE (°C)
LOW
1.8
HIGH
5.6
AVERAGE
4.0
PRESSURE (hpa)
LOW
1012.6
HIGH
1021.0
AVERAGE
1018.5
DEVICE